Terminal Aerodrome Forecast
Issued by NWS

Home | Current Version | Previous Version | Graphics & Text | Print | Product List | Glossary On
Versions: 1 2 3 4 5 6 7 8 9 10 11 12 13 14 15 16 17 18 19
143
FTUS43 KGRB 251131
TAFCWA
TAF
KCWA 251131Z 2512/2612 14008KT P6SM SCT250 WS018/19035KT
     FM251400 15008KT P6SM SCT200
     FM251600 16008G14KT P6SM BKN150
     FM252100 16006KT P6SM -SHRA OVC060
     FM260000 11005KT P6SM -SHRA OVC060
     FM260300 10007KT P6SM SHRA OVC040 WS019/17035KT=

USA.gov is the U.S. government's official web portal to all federal, state and local government web resources and services.